sensor_id;sensor_type;location;lat;lon;timestamp;temperature;humidity
23405;DHT22;11875;49.356;2.718;2024-02-15T00:02:03;13.20;99.90
23405;DHT22;11875;49.356;2.718;2024-02-15T00:04:30;13.20;99.90
23405;DHT22;11875;49.356;2.718;2024-02-15T00:06:56;13.30;99.90
23405;DHT22;11875;49.356;2.718;2024-02-15T00:09:22;13.40;99.90
23405;DHT22;11875;49.356;2.718;2024-02-15T00:11:47;13.40;99.90
23405;DHT22;11875;49.356;2.718;2024-02-15T00:14:13;13.50;99.90
23405;DHT22;11875;49.356;2.718;2024-02-15T00:16:38;13.70;99.90
23405;DHT22;11875;49.356;2.718;2024-02-15T00:19:05;13.60;99.90
23405;DHT22;11875;49.356;2.718;2024-02-15T00:21:32;13.70;99.90
23405;DHT22;11875;49.356;2.718;2024-02-15T00:23:57;13.90;99.90
23405;DHT22;11875;49.356;2.718;2024-02-15T00:26:25;13.90;99.90
23405;DHT22;11875;49.356;2.718;2024-02-15T00:28:51;14.00;99.90
23405;DHT22;11875;49.356;2.718;2024-02-15T00:31:17;14.00;99.90
23405;DHT22;11875;49.356;2.718;2024-02-15T00:33:44;14.00;99.90
23405;DHT22;11875;49.356;2.718;2024-02-15T00:36:10;14.00;99.90
23405;DHT22;11875;49.356;2.718;2024-02-15T00:38:36;14.10;99.90
23405;DHT22;11875;49.356;2.718;2024-02-15T00:41:02;14.10;99.90
23405;DHT22;11875;49.356;2.718;2024-02-15T00:43:28;14.10;99.90
23405;DHT22;11875;49.356;2.718;2024-02-15T00:45:53;14.10;99.90
23405;DHT22;11875;49.356;2.718;2024-02-15T00:48:19;14.00;99.90
23405;DHT22;11875;49.356;2.718;2024-02-15T00:50:44;14.00;99.90
23405;DHT22;11875;49.356;2.718;2024-02-15T00:53:10;13.90;99.90
23405;DHT22;11875;49.356;2.718;2024-02-15T00:55:36;14.00;99.90
23405;DHT22;11875;49.356;2.718;2024-02-15T00:58:01;14.00;99.90
23405;DHT22;11875;49.356;2.718;2024-02-15T01:00:27;14.00;99.90
23405;DHT22;11875;49.356;2.718;2024-02-15T01:02:54;13.90;99.90
23405;DHT22;11875;49.356;2.718;2024-02-15T01:05:19;13.90;99.90
23405;DHT22;11875;49.356;2.718;2024-02-15T01:07:45;13.80;99.90
23405;DHT22;11875;49.356;2.718;2024-02-15T01:10:11;13.80;99.90
23405;DHT22;11875;49.356;2.718;2024-02-15T01:12:37;13.80;99.90
23405;DHT22;11875;49.356;2.718;2024-02-15T01:15:03;13.90;99.90
23405;DHT22;11875;49.356;2.718;2024-02-15T01:17:29;13.70;99.90
23405;DHT22;11875;49.356;2.718;2024-02-15T01:19:55;13.60;99.90
23405;DHT22;11875;49.356;2.718;2024-02-15T01:22:20;13.40;99.90
23405;DHT22;11875;49.356;2.718;2024-02-15T01:24:49;13.30;99.90
23405;DHT22;11875;49.356;2.718;2024-02-15T01:27:14;13.40;99.90
23405;DHT22;11875;49.356;2.718;2024-02-15T01:29:40;13.50;99.90
23405;DHT22;11875;49.356;2.718;2024-02-15T01:32:08;13.60;99.90
23405;DHT22;11875;49.356;2.718;2024-02-15T01:34:33;13.60;99.90
23405;DHT22;11875;49.356;2.718;2024-02-15T01:36:59;13.80;99.90
23405;DHT22;11875;49.356;2.718;2024-02-15T01:39:25;13.80;99.90
23405;DHT22;11875;49.356;2.718;2024-02-15T01:41:51;13.90;99.90
23405;DHT22;11875;49.356;2.718;2024-02-15T01:44:19;14.00;99.90
23405;DHT22;11875;49.356;2.718;2024-02-15T01:46:47;13.90;99.90
23405;DHT22;11875;49.356;2.718;2024-02-15T01:49:14;13.80;99.90
23405;DHT22;11875;49.356;2.718;2024-02-15T01:51:41;13.70;99.90
23405;DHT22;11875;49.356;2.718;2024-02-15T01:54:10;13.70;99.90
23405;DHT22;11875;49.356;2.718;2024-02-15T01:56:36;13.60;99.90
23405;DHT22;11875;49.356;2.718;2024-02-15T01:59:02;13.50;99.90
23405;DHT22;11875;49.356;2.718;2024-02-15T02:01:30;13.60;99.90
23405;DHT22;11875;49.356;2.718;2024-02-15T02:03:58;13.50;99.90
23405;DHT22;11875;49.356;2.718;2024-02-15T02:06:24;13.50;99.90
23405;DHT22;11875;49.356;2.718;2024-02-15T02:08:50;13.40;99.90
23405;DHT22;11875;49.356;2.718;2024-02-15T02:11:16;13.40;99.90
23405;DHT22;11875;49.356;2.718;2024-02-15T02:13:42;13.20;99.90
23405;DHT22;11875;49.356;2.718;2024-02-15T02:16:30;13.30;99.90
23405;DHT22;11875;49.356;2.718;2024-02-15T02:19:00;13.20;99.90
23405;DHT22;11875;49.356;2.718;2024-02-15T02:21:30;13.00;99.90
23405;DHT22;11875;49.356;2.718;2024-02-15T02:23:57;13.00;99.90
23405;DHT22;11875;49.356;2.718;2024-02-15T02:26:24;13.00;99.90
23405;DHT22;11875;49.356;2.718;2024-02-15T02:28:50;13.10;99.90
23405;DHT22;11875;49.356;2.718;2024-02-15T02:31:18;13.10;99.90
23405;DHT22;11875;49.356;2.718;2024-02-15T02:33:50;13.20;99.90
23405;DHT22;11875;49.356;2.718;2024-02-15T02:36:19;13.20;99.90
23405;DHT22;11875;49.356;2.718;2024-02-15T02:38:45;13.10;99.90
23405;DHT22;11875;49.356;2.718;2024-02-15T02:41:14;13.10;99.90
23405;DHT22;11875;49.356;2.718;2024-02-15T02:43:42;13.10;99.90
23405;DHT22;11875;49.356;2.718;2024-02-15T02:46:12;13.20;99.90
23405;DHT22;11875;49.356;2.718;2024-02-15T02:48:41;13.30;99.90
23405;DHT22;11875;49.356;2.718;2024-02-15T02:51:07;13.30;99.90
23405;DHT22;11875;49.356;2.718;2024-02-15T02:53:33;13.20;99.90
23405;DHT22;11875;49.356;2.718;2024-02-15T02:55:58;13.30;99.90
23405;DHT22;11875;49.356;2.718;2024-02-15T02:58:24;13.40;99.90
23405;DHT22;11875;49.356;2.718;2024-02-15T03:00:50;13.50;99.90
23405;DHT22;11875;49.356;2.718;2024-02-15T03:03:17;13.40;99.90
23405;DHT22;11875;49.356;2.718;2024-02-15T03:05:42;13.30;99.90
23405;DHT22;11875;49.356;2.718;2024-02-15T03:08:09;13.20;99.90
23405;DHT22;11875;49.356;2.718;2024-02-15T03:10:34;13.10;99.90
23405;DHT22;11875;49.356;2.718;2024-02-15T03:13:00;13.10;99.90
23405;DHT22;11875;49.356;2.718;2024-02-15T03:15:26;13.10;99.90
23405;DHT22;11875;49.356;2.718;2024-02-15T03:17:51;12.90;99.90
23405;DHT22;11875;49.356;2.718;2024-02-15T03:20:17;12.90;99.90
23405;DHT22;11875;49.356;2.718;2024-02-15T03:23:01;12.80;99.90
23405;DHT22;11875;49.356;2.718;2024-02-15T03:25:28;12.70;99.90
23405;DHT22;11875;49.356;2.718;2024-02-15T03:27:59;12.70;99.90
23405;DHT22;11875;49.356;2.718;2024-02-15T03:30:31;12.70;99.90
23405;DHT22;11875;49.356;2.718;2024-02-15T03:32:59;12.70;99.90
23405;DHT22;11875;49.356;2.718;2024-02-15T03:35:26;12.80;99.90
23405;DHT22;11875;49.356;2.718;2024-02-15T03:37:53;12.80;99.90
23405;DHT22;11875;49.356;2.718;2024-02-15T03:40:21;12.80;99.90
23405;DHT22;11875;49.356;2.718;2024-02-15T03:42:47;12.80;99.90
23405;DHT22;11875;49.356;2.718;2024-02-15T03:45:13;12.70;99.90
23405;DHT22;11875;49.356;2.718;2024-02-15T03:47:38;12.70;99.90
23405;DHT22;11875;49.356;2.718;2024-02-15T03:50:08;12.50;99.90
23405;DHT22;11875;49.356;2.718;2024-02-15T03:52:36;12.50;99.90
23405;DHT22;11875;49.356;2.718;2024-02-15T03:55:01;12.50;99.90
23405;DHT22;11875;49.356;2.718;2024-02-15T03:57:28;12.40;99.90
23405;DHT22;11875;49.356;2.718;2024-02-15T03:59:54;12.30;99.90
23405;DHT22;11875;49.356;2.718;2024-02-15T04:02:23;12.30;99.90
23405;DHT22;11875;49.356;2.718;2024-02-15T04:04:49;12.40;99.90
23405;DHT22;11875;49.356;2.718;2024-02-15T04:07:18;12.40;99.90
23405;DHT22;11875;49.356;2.718;2024-02-15T04:09:47;12.50;99.90
23405;DHT22;11875;49.356;2.718;2024-02-15T04:12:13;12.50;99.90
23405;DHT22;11875;49.356;2.718;2024-02-15T04:14:45;12.40;99.90
23405;DHT22;11875;49.356;2.718;2024-02-15T04:17:11;12.40;99.90
23405;DHT22;11875;49.356;2.718;2024-02-15T04:19:43;12.40;99.90
23405;DHT22;11875;49.356;2.718;2024-02-15T04:22:09;12.40;99.90
23405;DHT22;11875;49.356;2.718;2024-02-15T04:24:36;12.30;99.90
23405;DHT22;11875;49.356;2.718;2024-02-15T04:27:05;12.30;99.90
23405;DHT22;11875;49.356;2.718;2024-02-15T04:29:34;12.30;99.90
23405;DHT22;11875;49.356;2.718;2024-02-15T04:31:59;12.30;99.90
23405;DHT22;11875;49.356;2.718;2024-02-15T04:34:25;12.40;99.90
23405;DHT22;11875;49.356;2.718;2024-02-15T04:36:51;12.40;99.90
23405;DHT22;11875;49.356;2.718;2024-02-15T04:39:21;12.40;99.90
23405;DHT22;11875;49.356;2.718;2024-02-15T04:41:53;12.50;99.90
23405;DHT22;11875;49.356;2.718;2024-02-15T04:44:19;12.40;99.90
23405;DHT22;11875;49.356;2.718;2024-02-15T04:46:52;12.40;99.90
23405;DHT22;11875;49.356;2.718;2024-02-15T04:49:18;12.40;99.90
23405;DHT22;11875;49.356;2.718;2024-02-15T04:51:44;12.40;99.90
23405;DHT22;11875;49.356;2.718;2024-02-15T04:54:10;12.50;99.90
23405;DHT22;11875;49.356;2.718;2024-02-15T04:56:39;12.60;99.90
23405;DHT22;11875;49.356;2.718;2024-02-15T04:59:05;12.70;99.90
23405;DHT22;11875;49.356;2.718;2024-02-15T05:01:34;12.80;99.90
23405;DHT22;11875;49.356;2.718;2024-02-15T05:04:00;12.80;99.90
23405;DHT22;11875;49.356;2.718;2024-02-15T05:06:29;12.90;99.90
23405;DHT22;11875;49.356;2.718;2024-02-15T05:08:55;13.00;99.90
23405;DHT22;11875;49.356;2.718;2024-02-15T05:11:23;13.00;99.90
23405;DHT22;11875;49.356;2.718;2024-02-15T05:13:48;13.00;99.90
23405;DHT22;11875;49.356;2.718;2024-02-15T05:16:17;13.00;99.90
23405;DHT22;11875;49.356;2.718;2024-02-15T05:18:43;13.10;99.90
23405;DHT22;11875;49.356;2.718;2024-02-15T05:21:11;13.10;99.90
23405;DHT22;11875;49.356;2.718;2024-02-15T05:23:40;13.20;99.90
23405;DHT22;11875;49.356;2.718;2024-02-15T05:26:08;13.20;99.90
23405;DHT22;11875;49.356;2.718;2024-02-15T05:28:34;13.20;99.90
23405;DHT22;11875;49.356;2.718;2024-02-15T05:33:45;13.20;99.90
23405;DHT22;11875;49.356;2.718;2024-02-15T05:36:17;13.20;99.90
23405;DHT22;11875;49.356;2.718;2024-02-15T05:38:52;13.10;99.90
23405;DHT22;11875;49.356;2.718;2024-02-15T05:41:18;13.10;99.90
23405;DHT22;11875;49.356;2.718;2024-02-15T05:43:45;13.10;99.90
23405;DHT22;11875;49.356;2.718;2024-02-15T05:46:12;13.00;99.90
23405;DHT22;11875;49.356;2.718;2024-02-15T05:48:38;13.00;99.90
23405;DHT22;11875;49.356;2.718;2024-02-15T05:51:05;13.00;99.90
23405;DHT22;11875;49.356;2.718;2024-02-15T05:53:31;12.90;99.90
23405;DHT22;11875;49.356;2.718;2024-02-15T05:56:02;12.90;99.90
23405;DHT22;11875;49.356;2.718;2024-02-15T05:58:30;12.90;99.90
23405;DHT22;11875;49.356;2.718;2024-02-15T06:00:56;12.90;99.90
23405;DHT22;11875;49.356;2.718;2024-02-15T06:03:29;13.00;99.90
23405;DHT22;11875;49.356;2.718;2024-02-15T06:05:57;13.00;99.90
23405;DHT22;11875;49.356;2.718;2024-02-15T06:08:25;13.00;99.90
23405;DHT22;11875;49.356;2.718;2024-02-15T06:10:51;13.10;99.90
23405;DHT22;11875;49.356;2.718;2024-02-15T06:13:18;13.20;99.90
23405;DHT22;11875;49.356;2.718;2024-02-15T06:15:43;13.30;99.90
23405;DHT22;11875;49.356;2.718;2024-02-15T06:18:11;13.30;99.90
23405;DHT22;11875;49.356;2.718;2024-02-15T06:20:40;13.30;99.90
23405;DHT22;11875;49.356;2.718;2024-02-15T06:23:06;13.20;99.90
23405;DHT22;11875;49.356;2.718;2024-02-15T06:25:33;13.20;99.90
23405;DHT22;11875;49.356;2.718;2024-02-15T06:28:00;13.30;99.90
23405;DHT22;11875;49.356;2.718;2024-02-15T06:30:28;13.30;99.90
23405;DHT22;11875;49.356;2.718;2024-02-15T06:33:13;13.20;99.90
23405;DHT22;11875;49.356;2.718;2024-02-15T06:35:57;13.10;99.90
23405;DHT22;11875;49.356;2.718;2024-02-15T06:38:41;13.00;99.90
23405;DHT22;11875;49.356;2.718;2024-02-15T06:41:25;13.00;99.90
23405;DHT22;11875;49.356;2.718;2024-02-15T06:43:51;13.00;99.90
23405;DHT22;11875;49.356;2.718;2024-02-15T06:46:17;13.10;99.90
23405;DHT22;11875;49.356;2.718;2024-02-15T06:48:44;13.10;99.90
23405;DHT22;11875;49.356;2.718;2024-02-15T06:51:14;13.20;99.90
23405;DHT22;11875;49.356;2.718;2024-02-15T06:53:40;13.30;99.90
23405;DHT22;11875;49.356;2.718;2024-02-15T06:56:09;13.20;99.90
23405;DHT22;11875;49.356;2.718;2024-02-15T06:58:35;13.10;99.90
23405;DHT22;11875;49.356;2.718;2024-02-15T07:01:01;13.10;99.90
23405;DHT22;11875;49.356;2.718;2024-02-15T07:03:28;13.10;99.90
23405;DHT22;11875;49.356;2.718;2024-02-15T07:05:55;13.10;99.90
23405;DHT22;11875;49.356;2.718;2024-02-15T07:08:21;13.10;99.90
23405;DHT22;11875;49.356;2.718;2024-02-15T07:10:50;13.10;99.90
23405;DHT22;11875;49.356;2.718;2024-02-15T07:13:17;13.10;99.90
23405;DHT22;11875;49.356;2.718;2024-02-15T07:15:43;13.00;99.90
23405;DHT22;11875;49.356;2.718;2024-02-15T07:18:09;13.00;99.90
23405;DHT22;11875;49.356;2.718;2024-02-15T07:20:37;13.00;99.90
23405;DHT22;11875;49.356;2.718;2024-02-15T07:23:03;13.00;99.90
23405;DHT22;11875;49.356;2.718;2024-02-15T07:25:29;12.90;99.90
23405;DHT22;11875;49.356;2.718;2024-02-15T07:27:54;12.80;99.90
23405;DHT22;11875;49.356;2.718;2024-02-15T07:30:22;12.60;99.90
23405;DHT22;11875;49.356;2.718;2024-02-15T07:32:49;12.60;99.90
23405;DHT22;11875;49.356;2.718;2024-02-15T07:35:14;12.70;99.90
23405;DHT22;11875;49.356;2.718;2024-02-15T07:37:51;12.80;99.90
23405;DHT22;11875;49.356;2.718;2024-02-15T07:40:18;12.90;99.90
23405;DHT22;11875;49.356;2.718;2024-02-15T07:42:44;12.90;99.90
23405;DHT22;11875;49.356;2.718;2024-02-15T07:45:09;13.00;99.90
23405;DHT22;11875;49.356;2.718;2024-02-15T07:47:36;13.00;99.90
23405;DHT22;11875;49.356;2.718;2024-02-15T07:50:02;13.10;99.90
23405;DHT22;11875;49.356;2.718;2024-02-15T07:52:28;13.10;99.90
23405;DHT22;11875;49.356;2.718;2024-02-15T07:54:54;13.10;99.90
23405;DHT22;11875;49.356;2.718;2024-02-15T07:57:20;13.10;99.90
23405;DHT22;11875;49.356;2.718;2024-02-15T07:59:45;13.10;99.90
23405;DHT22;11875;49.356;2.718;2024-02-15T08:02:13;12.90;99.90
23405;DHT22;11875;49.356;2.718;2024-02-15T08:04:42;12.80;99.90
23405;DHT22;11875;49.356;2.718;2024-02-15T08:07:10;12.60;99.90
23405;DHT22;11875;49.356;2.718;2024-02-15T08:09:38;12.60;99.90
23405;DHT22;11875;49.356;2.718;2024-02-15T08:12:04;12.50;99.90
23405;DHT22;11875;49.356;2.718;2024-02-15T08:14:30;12.40;99.90
23405;DHT22;11875;49.356;2.718;2024-02-15T08:16:56;12.30;99.90
23405;DHT22;11875;49.356;2.718;2024-02-15T08:19:22;12.10;99.90
23405;DHT22;11875;49.356;2.718;2024-02-15T08:21:48;12.00;99.90
23405;DHT22;11875;49.356;2.718;2024-02-15T08:24:16;12.00;99.90
23405;DHT22;11875;49.356;2.718;2024-02-15T08:26:42;12.10;99.90
23405;DHT22;11875;49.356;2.718;2024-02-15T08:29:08;12.00;99.90
23405;DHT22;11875;49.356;2.718;2024-02-15T08:31:35;12.10;99.90
23405;DHT22;11875;49.356;2.718;2024-02-15T08:34:04;12.20;99.90
23405;DHT22;11875;49.356;2.718;2024-02-15T08:36:36;12.30;99.90
23405;DHT22;11875;49.356;2.718;2024-02-15T08:39:01;12.30;99.90
23405;DHT22;11875;49.356;2.718;2024-02-15T08:41:29;12.30;99.90
23405;DHT22;11875;49.356;2.718;2024-02-15T08:43:55;12.40;99.90
23405;DHT22;11875;49.356;2.718;2024-02-15T08:46:23;12.60;99.90
23405;DHT22;11875;49.356;2.718;2024-02-15T08:48:51;13.00;99.90
23405;DHT22;11875;49.356;2.718;2024-02-15T08:51:17;13.20;99.90
23405;DHT22;11875;49.356;2.718;2024-02-15T08:53:43;13.40;99.90
23405;DHT22;11875;49.356;2.718;2024-02-15T08:56:09;13.60;99.90
23405;DHT22;11875;49.356;2.718;2024-02-15T08:58:35;13.70;99.90
23405;DHT22;11875;49.356;2.718;2024-02-15T09:01:01;14.00;99.90
23405;DHT22;11875;49.356;2.718;2024-02-15T09:03:28;14.20;99.90
23405;DHT22;11875;49.356;2.718;2024-02-15T09:05:54;14.40;99.90
23405;DHT22;11875;49.356;2.718;2024-02-15T09:08:19;14.50;99.90
23405;DHT22;11875;49.356;2.718;2024-02-15T09:10:47;14.70;99.90
23405;DHT22;11875;49.356;2.718;2024-02-15T09:13:13;14.70;99.90
23405;DHT22;11875;49.356;2.718;2024-02-15T09:15:40;14.80;99.90
23405;DHT22;11875;49.356;2.718;2024-02-15T09:18:07;14.90;99.90
23405;DHT22;11875;49.356;2.718;2024-02-15T09:20:35;14.90;99.90
23405;DHT22;11875;49.356;2.718;2024-02-15T09:23:02;14.90;99.90
23405;DHT22;11875;49.356;2.718;2024-02-15T09:25:34;15.00;99.90
23405;DHT22;11875;49.356;2.718;2024-02-15T09:28:01;15.00;99.90
23405;DHT22;11875;49.356;2.718;2024-02-15T09:30:28;15.20;99.90
23405;DHT22;11875;49.356;2.718;2024-02-15T09:32:54;15.30;99.90
23405;DHT22;11875;49.356;2.718;2024-02-15T09:35:19;15.30;99.90
23405;DHT22;11875;49.356;2.718;2024-02-15T09:37:47;15.30;99.90
23405;DHT22;11875;49.356;2.718;2024-02-15T09:40:18;15.30;99.90
23405;DHT22;11875;49.356;2.718;2024-02-15T09:42:44;15.30;99.90
23405;DHT22;11875;49.356;2.718;2024-02-15T09:45:11;15.40;99.90
23405;DHT22;11875;49.356;2.718;2024-02-15T09:47:42;15.60;99.90
23405;DHT22;11875;49.356;2.718;2024-02-15T09:50:09;15.50;99.90
23405;DHT22;11875;49.356;2.718;2024-02-15T09:52:38;15.60;99.90
23405;DHT22;11875;49.356;2.718;2024-02-15T09:55:07;15.50;99.90
23405;DHT22;11875;49.356;2.718;2024-02-15T09:57:47;15.50;99.90
23405;DHT22;11875;49.356;2.718;2024-02-15T10:00:13;15.50;99.90
23405;DHT22;11875;49.356;2.718;2024-02-15T10:02:44;15.30;99.90
23405;DHT22;11875;49.356;2.718;2024-02-15T10:05:10;15.40;99.90
23405;DHT22;11875;49.356;2.718;2024-02-15T10:07:42;15.40;99.90
23405;DHT22;11875;49.356;2.718;2024-02-15T10:10:21;15.50;99.90
23405;DHT22;11875;49.356;2.718;2024-02-15T10:12:51;15.70;99.90
23405;DHT22;11875;49.356;2.718;2024-02-15T10:15:47;15.80;99.90
23405;DHT22;11875;49.356;2.718;2024-02-15T10:18:13;16.00;99.90
23405;DHT22;11875;49.356;2.718;2024-02-15T10:20:39;16.10;99.90
23405;DHT22;11875;49.356;2.718;2024-02-15T10:23:14;16.10;99.90
23405;DHT22;11875;49.356;2.718;2024-02-15T10:25:42;16.10;99.90
23405;DHT22;11875;49.356;2.718;2024-02-15T10:28:12;16.10;99.90
23405;DHT22;11875;49.356;2.718;2024-02-15T10:30:41;15.90;99.90
23405;DHT22;11875;49.356;2.718;2024-02-15T10:33:18;15.90;99.90
23405;DHT22;11875;49.356;2.718;2024-02-15T10:35:46;15.80;99.90
23405;DHT22;11875;49.356;2.718;2024-02-15T10:38:12;15.80;99.90
23405;DHT22;11875;49.356;2.718;2024-02-15T10:40:39;15.90;99.90
23405;DHT22;11875;49.356;2.718;2024-02-15T10:43:09;15.90;99.90
23405;DHT22;11875;49.356;2.718;2024-02-15T10:45:39;15.90;99.90
23405;DHT22;11875;49.356;2.718;2024-02-15T10:48:09;16.00;99.90
23405;DHT22;11875;49.356;2.718;2024-02-15T10:50:35;16.10;99.90
23405;DHT22;11875;49.356;2.718;2024-02-15T10:53:12;16.10;99.90
23405;DHT22;11875;49.356;2.718;2024-02-15T10:56:34;16.10;99.90
23405;DHT22;11875;49.356;2.718;2024-02-15T10:58:44;16.20;99.90
23405;DHT22;11875;49.356;2.718;2024-02-15T11:01:13;16.20;99.90
23405;DHT22;11875;49.356;2.718;2024-02-15T11:03:52;16.20;99.90
23405;DHT22;11875;49.356;2.718;2024-02-15T11:06:24;16.30;99.90
23405;DHT22;11875;49.356;2.718;2024-02-15T11:08:52;16.20;99.90
23405;DHT22;11875;49.356;2.718;2024-02-15T11:11:18;16.30;99.90
23405;DHT22;11875;49.356;2.718;2024-02-15T11:13:46;16.50;99.90
23405;DHT22;11875;49.356;2.718;2024-02-15T11:16:39;16.50;99.90
23405;DHT22;11875;49.356;2.718;2024-02-15T11:19:05;16.40;99.90
23405;DHT22;11875;49.356;2.718;2024-02-15T11:21:53;16.30;99.90
23405;DHT22;11875;49.356;2.718;2024-02-15T11:24:26;16.20;99.90
23405;DHT22;11875;49.356;2.718;2024-02-15T11:27:01;16.20;99.90
23405;DHT22;11875;49.356;2.718;2024-02-15T11:29:49;16.10;99.90
23405;DHT22;11875;49.356;2.718;2024-02-15T11:32:35;16.00;99.90
23405;DHT22;11875;49.356;2.718;2024-02-15T11:40:15;15.80;99.90
23405;DHT22;11875;49.356;2.718;2024-02-15T11:42:42;15.80;99.90
23405;DHT22;11875;49.356;2.718;2024-02-15T11:45:08;15.90;99.90
23405;DHT22;11875;49.356;2.718;2024-02-15T11:47:39;15.90;99.90
23405;DHT22;11875;49.356;2.718;2024-02-15T11:50:09;16.00;99.90
23405;DHT22;11875;49.356;2.718;2024-02-15T11:52:44;16.00;99.90
23405;DHT22;11875;49.356;2.718;2024-02-15T11:55:25;16.10;99.90
23405;DHT22;11875;49.356;2.718;2024-02-15T11:57:56;16.10;99.90
23405;DHT22;11875;49.356;2.718;2024-02-15T12:00:31;16.10;99.90
23405;DHT22;11875;49.356;2.718;2024-02-15T12:03:16;16.10;99.90
23405;DHT22;11875;49.356;2.718;2024-02-15T12:06:00;16.00;99.90
23405;DHT22;11875;49.356;2.718;2024-02-15T12:08:45;16.10;99.90
23405;DHT22;11875;49.356;2.718;2024-02-15T12:11:30;16.20;99.90
23405;DHT22;11875;49.356;2.718;2024-02-15T12:14:15;16.30;99.90
23405;DHT22;11875;49.356;2.718;2024-02-15T12:17:12;16.30;99.90
23405;DHT22;11875;49.356;2.718;2024-02-15T12:20:00;16.40;99.90
23405;DHT22;11875;49.356;2.718;2024-02-15T12:22:30;16.40;99.90
23405;DHT22;11875;49.356;2.718;2024-02-15T12:25:01;16.40;99.90
23405;DHT22;11875;49.356;2.718;2024-02-15T12:27:27;16.60;99.90
23405;DHT22;11875;49.356;2.718;2024-02-15T12:29:56;16.70;99.90
23405;DHT22;11875;49.356;2.718;2024-02-15T12:32:24;16.80;99.90
23405;DHT22;11875;49.356;2.718;2024-02-15T12:35:09;16.90;99.90
23405;DHT22;11875;49.356;2.718;2024-02-15T12:38:03;16.90;99.90
23405;DHT22;11875;49.356;2.718;2024-02-15T12:40:37;16.90;99.90
23405;DHT22;11875;49.356;2.718;2024-02-15T12:43:07;17.00;99.90
23405;DHT22;11875;49.356;2.718;2024-02-15T12:45:38;17.10;99.90
23405;DHT22;11875;49.356;2.718;2024-02-15T12:48:08;17.20;99.90
23405;DHT22;11875;49.356;2.718;2024-02-15T12:50:34;17.20;99.90
23405;DHT22;11875;49.356;2.718;2024-02-15T12:53:00;17.20;99.90
23405;DHT22;11875;49.356;2.718;2024-02-15T12:55:30;17.20;99.90
23405;DHT22;11875;49.356;2.718;2024-02-15T12:58:06;17.20;99.90
23405;DHT22;11875;49.356;2.718;2024-02-15T13:00:36;17.10;99.90
23405;DHT22;11875;49.356;2.718;2024-02-15T13:03:05;17.10;99.90
23405;DHT22;11875;49.356;2.718;2024-02-15T13:05:34;17.10;99.90
23405;DHT22;11875;49.356;2.718;2024-02-15T13:08:02;17.30;99.90
23405;DHT22;11875;49.356;2.718;2024-02-15T13:10:29;17.40;99.90
23405;DHT22;11875;49.356;2.718;2024-02-15T13:12:55;17.50;99.90
23405;DHT22;11875;49.356;2.718;2024-02-15T13:15:21;17.40;99.90
23405;DHT22;11875;49.356;2.718;2024-02-15T13:17:55;17.40;99.90
23405;DHT22;11875;49.356;2.718;2024-02-15T13:20:21;17.50;99.90
23405;DHT22;11875;49.356;2.718;2024-02-15T13:22:58;17.50;99.90
23405;DHT22;11875;49.356;2.718;2024-02-15T13:25:26;17.60;99.90
23405;DHT22;11875;49.356;2.718;2024-02-15T13:27:51;17.60;99.90
23405;DHT22;11875;49.356;2.718;2024-02-15T13:30:17;17.50;99.90
23405;DHT22;11875;49.356;2.718;2024-02-15T13:32:49;17.60;99.90
23405;DHT22;11875;49.356;2.718;2024-02-15T13:35:16;17.60;99.90
23405;DHT22;11875;49.356;2.718;2024-02-15T13:37:55;17.50;99.90
23405;DHT22;11875;49.356;2.718;2024-02-15T13:40:24;17.50;99.90
23405;DHT22;11875;49.356;2.718;2024-02-15T13:42:52;17.50;99.90
23405;DHT22;11875;49.356;2.718;2024-02-15T13:45:28;17.60;99.90
23405;DHT22;11875;49.356;2.718;2024-02-15T13:47:59;17.50;99.90
23405;DHT22;11875;49.356;2.718;2024-02-15T13:50:31;17.40;99.90
23405;DHT22;11875;49.356;2.718;2024-02-15T13:52:57;17.40;99.90
23405;DHT22;11875;49.356;2.718;2024-02-15T13:55:26;17.30;99.90
23405;DHT22;11875;49.356;2.718;2024-02-15T13:57:53;17.40;99.90
23405;DHT22;11875;49.356;2.718;2024-02-15T14:00:19;17.50;99.90
23405;DHT22;11875;49.356;2.718;2024-02-15T14:02:55;17.50;99.90
23405;DHT22;11875;49.356;2.718;2024-02-15T14:05:23;17.60;99.90
23405;DHT22;11875;49.356;2.718;2024-02-15T14:07:56;17.40;99.90
23405;DHT22;11875;49.356;2.718;2024-02-15T14:10:26;17.40;99.90
23405;DHT22;11875;49.356;2.718;2024-02-15T14:12:53;17.40;99.90
23405;DHT22;11875;49.356;2.718;2024-02-15T14:15:24;17.50;99.90
23405;DHT22;11875;49.356;2.718;2024-02-15T14:17:49;17.60;99.90
23405;DHT22;11875;49.356;2.718;2024-02-15T14:20:15;17.60;99.90
23405;DHT22;11875;49.356;2.718;2024-02-15T14:22:43;17.60;99.90
23405;DHT22;11875;49.356;2.718;2024-02-15T14:25:09;17.50;99.90
23405;DHT22;11875;49.356;2.718;2024-02-15T14:27:38;17.40;99.90
23405;DHT22;11875;49.356;2.718;2024-02-15T14:30:05;17.30;99.90
23405;DHT22;11875;49.356;2.718;2024-02-15T14:32:49;17.40;99.90
23405;DHT22;11875;49.356;2.718;2024-02-15T14:35:34;17.40;99.90
23405;DHT22;11875;49.356;2.718;2024-02-15T14:38:07;17.40;99.90
23405;DHT22;11875;49.356;2.718;2024-02-15T14:40:44;17.30;99.90
23405;DHT22;11875;49.356;2.718;2024-02-15T14:43:23;17.30;99.90
23405;DHT22;11875;49.356;2.718;2024-02-15T14:45:50;17.20;99.90
23405;DHT22;11875;49.356;2.718;2024-02-15T14:48:17;17.20;99.90
23405;DHT22;11875;49.356;2.718;2024-02-15T14:50:46;17.10;99.90
23405;DHT22;11875;49.356;2.718;2024-02-15T14:53:14;16.90;99.90
23405;DHT22;11875;49.356;2.718;2024-02-15T14:55:41;16.90;99.90
23405;DHT22;11875;49.356;2.718;2024-02-15T14:58:12;16.60;99.90
23405;DHT22;11875;49.356;2.718;2024-02-15T15:00:39;16.90;99.90
23405;DHT22;11875;49.356;2.718;2024-02-15T15:03:07;16.80;99.90
23405;DHT22;11875;49.356;2.718;2024-02-15T15:05:32;16.80;99.90
23405;DHT22;11875;49.356;2.718;2024-02-15T15:08:17;16.60;99.90
23405;DHT22;11875;49.356;2.718;2024-02-15T15:11:01;16.70;99.90
23405;DHT22;11875;49.356;2.718;2024-02-15T15:13:45;16.80;99.90
23405;DHT22;11875;49.356;2.718;2024-02-15T15:16:11;16.70;99.90
23405;DHT22;11875;49.356;2.718;2024-02-15T15:18:40;16.70;99.90
23405;DHT22;11875;49.356;2.718;2024-02-15T15:21:06;16.70;99.90
23405;DHT22;11875;49.356;2.718;2024-02-15T15:23:31;16.70;99.90
23405;DHT22;11875;49.356;2.718;2024-02-15T15:26:01;16.80;99.90
23405;DHT22;11875;49.356;2.718;2024-02-15T15:28:27;16.80;99.90
23405;DHT22;11875;49.356;2.718;2024-02-15T15:30:53;16.80;99.90
23405;DHT22;11875;49.356;2.718;2024-02-15T15:33:20;16.90;99.90
23405;DHT22;11875;49.356;2.718;2024-02-15T15:35:47;16.90;99.90
23405;DHT22;11875;49.356;2.718;2024-02-15T15:38:14;17.00;99.90
23405;DHT22;11875;49.356;2.718;2024-02-15T15:40:40;16.90;99.90
23405;DHT22;11875;49.356;2.718;2024-02-15T15:43:07;16.90;99.90
23405;DHT22;11875;49.356;2.718;2024-02-15T15:45:33;16.90;99.90
23405;DHT22;11875;49.356;2.718;2024-02-15T15:48:00;16.90;99.90
23405;DHT22;11875;49.356;2.718;2024-02-15T15:50:26;16.80;99.90